createdAt,value
2019-01-03T00:02:07.586Z,2.95
2019-01-03T00:05:01.612Z,4.80
2019-01-03T00:08:04.864Z,4.13
2019-01-03T00:10:58.757Z,3.30
2019-01-03T00:13:46.985Z,2.50
2019-01-03T00:16:40.044Z,2.30
2019-01-03T00:19:26.040Z,2.10
2019-01-03T00:22:16.784Z,2.05
2019-01-03T00:25:19.957Z,2.00
2019-01-03T00:28:20.063Z,1.70
2019-01-03T00:31:10.860Z,1.77
2019-01-03T00:33:56.961Z,1.77
2019-01-03T00:36:58.517Z,1.50
2019-01-03T00:39:46.482Z,1.70
2019-01-03T00:42:29.862Z,1.70
2019-01-03T00:45:16.692Z,1.70
2019-01-03T00:48:00.300Z,1.70
2019-01-03T00:50:51.378Z,1.50
2019-01-03T00:53:34.057Z,1.60
2019-01-03T00:56:21.994Z,1.90
2019-01-03T00:59:18.098Z,1.65
2019-01-03T01:02:21.516Z,2.10
2019-01-03T01:05:24.704Z,1.90
2019-01-03T01:08:19.520Z,1.50
2019-01-03T01:11:22.805Z,1.95
2019-01-03T01:14:25.913Z,1.67
2019-01-03T01:17:15.555Z,2.10
2019-01-03T01:20:06.405Z,1.92
2019-01-03T01:22:48.866Z,1.57
2019-01-03T01:25:36.781Z,1.70
2019-01-03T01:28:22.082Z,1.70
2019-01-03T01:31:09.987Z,1.62
2019-01-03T01:34:03.900Z,1.92
2019-01-03T01:36:50.877Z,1.60
2019-01-03T01:39:31.493Z,1.70
2019-01-03T01:42:28.456Z,1.75
2019-01-03T01:45:15.041Z,1.40
2019-01-03T01:48:09.154Z,2.00
2019-01-03T01:50:57.575Z,1.60
2019-01-03T01:53:36.872Z,2.00
2019-01-03T01:56:30.696Z,1.80
2019-01-03T01:59:17.263Z,1.50
2019-01-03T02:02:04.245Z,1.90
2019-01-03T02:05:01.958Z,1.80
2019-01-03T02:07:49.874Z,1.90
2019-01-03T02:10:53.137Z,1.50
2019-01-03T02:13:43.865Z,1.40
2019-01-03T02:16:34.605Z,1.60
2019-01-03T02:19:19.029Z,1.60
2019-01-03T02:22:14.277Z,1.52
2019-01-03T02:25:05.069Z,1.50
2019-01-03T02:27:52.065Z,1.40
2019-01-03T02:30:49.254Z,1.40
2019-01-03T02:33:40.157Z,1.50
2019-01-03T02:36:40.252Z,1.72
2019-01-03T02:39:28.269Z,1.60
2019-01-03T02:42:16.296Z,1.62
2019-01-03T02:45:07.330Z,1.52
2019-01-03T02:47:55.230Z,1.57
2019-01-03T02:50:33.162Z,1.70
2019-01-03T02:53:19.758Z,2.10
2019-01-03T02:56:06.589Z,1.60
2019-01-03T02:58:56.797Z,1.60
2019-01-03T03:01:47.849Z,1.83
2019-01-03T03:04:26.913Z,1.50
2019-01-03T03:07:13.888Z,1.40
2019-01-03T03:09:57.559Z,1.40
2019-01-03T03:12:44.122Z,1.70
2019-01-03T03:15:32.429Z,1.20
2019-01-03T03:18:20.701Z,1.55
2019-01-03T03:21:20.895Z,1.30
2019-01-03T03:24:24.035Z,1.50
2019-01-03T03:27:11.951Z,1.70
2019-01-03T03:29:59.338Z,1.40
2019-01-03T03:32:50.308Z,1.60
2019-01-03T03:35:48.525Z,1.40
2019-01-03T03:38:35.652Z,1.70
2019-01-03T03:41:35.974Z,1.60
2019-01-03T03:47:15.027Z,1.40
2019-01-03T03:50:12.101Z,1.67
2019-01-03T03:53:15.074Z,1.70
2019-01-03T03:56:03.295Z,5.75
2019-01-03T03:59:05.570Z,6.97
2019-01-03T04:02:08.746Z,9.43
2019-01-03T04:05:11.513Z,17.87
2019-01-03T04:07:59.413Z,8.85
2019-01-03T04:10:53.375Z,2.77
2019-01-03T04:13:39.641Z,2.30
2019-01-03T04:16:33.696Z,2.40
2019-01-03T04:19:20.324Z,2.08
2019-01-03T04:22:08.494Z,1.40
2019-01-03T04:24:58.200Z,1.95
2019-01-03T04:28:06.883Z,1.67
2019-01-03T04:30:54.632Z,1.60
2019-01-03T04:34:00.978Z,1.90
2019-01-03T04:36:50.252Z,1.62
2019-01-03T04:39:40.935Z,2.72
2019-01-03T04:42:40.741Z,3.12
2019-01-03T04:45:27.330Z,3.02
2019-01-03T04:48:10.535Z,2.83
2019-01-03T04:51:00.786Z,2.60
2019-01-03T04:53:47.721Z,1.90
2019-01-03T04:56:47.852Z,2.20
2019-01-03T04:59:39.135Z,2.80
2019-01-03T05:02:26.323Z,3.85
2019-01-03T05:05:13.239Z,4.00
2019-01-03T05:08:00.153Z,4.87
2019-01-03T05:10:54.449Z,9.80
2019-01-03T05:13:41.042Z,5.70
2019-01-03T05:16:27.954Z,2.05
2019-01-03T05:19:25.130Z,3.45
2019-01-03T05:22:11.854Z,4.40
2019-01-03T05:24:59.758Z,2.10
2019-01-03T05:27:59.522Z,3.25
2019-01-03T05:30:46.196Z,4.80
2019-01-03T05:33:49.525Z,5.42
2019-01-03T05:36:36.561Z,7.92
2019-01-03T05:39:35.260Z,6.25
2019-01-03T05:42:14.535Z,7.10
2019-01-03T05:45:08.633Z,15.15
2019-01-03T05:47:59.562Z,19.82
2019-01-03T05:50:59.582Z,10.18
2019-01-03T05:53:46.206Z,6.20
2019-01-03T05:56:40.413Z,8.03
2019-01-03T05:59:34.682Z,7.33
2019-01-03T06:02:28.993Z,6.55
2019-01-03T06:05:17.006Z,6.17
2019-01-03T06:08:17.379Z,4.08
2019-01-03T06:11:11.151Z,1.97
2019-01-03T06:14:17.899Z,2.00
2019-01-03T06:17:11.609Z,1.85
2019-01-03T06:20:07.630Z,2.00
2019-01-03T06:22:55.622Z,2.05
2019-01-03T06:25:42.771Z,2.08
2019-01-03T06:28:29.974Z,2.25
2019-01-03T06:31:21.007Z,3.40
2019-01-03T06:34:07.801Z,4.60
2019-01-03T06:37:02.035Z,4.85
2019-01-03T06:39:39.829Z,5.20
2019-01-03T06:42:25.779Z,5.33
2019-01-03T06:45:12.759Z,4.55
2019-01-03T06:47:59.546Z,4.85
2019-01-03T06:50:51.640Z,3.70
2019-01-03T06:53:45.881Z,3.08
2019-01-03T06:56:43.117Z,2.50
2019-01-03T06:59:26.309Z,2.50
2019-01-03T07:02:20.670Z,2.45
2019-01-03T07:05:24.213Z,2.33
2019-01-03T07:08:18.986Z,1.60
2019-01-03T07:11:08.458Z,1.50
2019-01-03T07:13:55.204Z,1.40
2019-01-03T07:16:47.002Z,1.50
2019-01-03T07:19:31.962Z,1.50
2019-01-03T07:22:14.661Z,1.60
2019-01-03T07:25:11.842Z,1.63
2019-01-03T07:28:17.841Z,1.55
2019-01-03T07:31:05.793Z,1.70
2019-01-03T07:33:57.064Z,1.77
2019-01-03T07:36:42.954Z,1.70
2019-01-03T07:39:34.278Z,1.77
2019-01-03T07:42:22.273Z,1.80
2019-01-03T07:45:13.266Z,1.90
2019-01-03T07:48:13.261Z,1.50
2019-01-03T07:51:00.205Z,1.70
2019-01-03T07:53:47.362Z,1.90
2019-01-03T07:56:38.338Z,1.90
2019-01-03T07:59:26.486Z,1.90
2019-01-03T08:02:14.471Z,2.33
2019-01-03T08:05:21.304Z,2.15
2019-01-03T08:08:08.041Z,2.60
2019-01-03T08:10:55.948Z,4.60
2019-01-03T08:13:53.514Z,4.70
2019-01-03T08:16:41.773Z,5.22
2019-01-03T08:19:32.882Z,5.28
2019-01-03T08:22:26.656Z,6.87
2019-01-03T08:25:30.118Z,3.95
2019-01-03T08:28:16.909Z,4.47
2019-01-03T08:31:07.369Z,3.50
2019-01-03T08:34:13.957Z,2.52
2019-01-03T08:37:02.169Z,2.00
2019-01-03T08:39:49.437Z,2.30
2019-01-03T08:42:49.696Z,2.00
2019-01-03T08:45:40.610Z,2.40
2019-01-03T08:48:27.550Z,4.65
2019-01-03T08:51:13.910Z,2.70
2019-01-03T08:54:10.748Z,2.87
2019-01-03T08:56:57.710Z,7.28
2019-01-03T08:59:45.698Z,4.90
2019-01-03T09:02:36.919Z,4.40
2019-01-03T09:05:30.280Z,4.90
2019-01-03T09:08:21.276Z,6.03
2019-01-03T09:11:12.173Z,4.50
2019-01-03T09:13:58.981Z,3.00
2019-01-03T09:16:50.040Z,3.80
2019-01-03T09:19:44.018Z,3.40
2019-01-03T09:22:33.734Z,3.10
2019-01-03T09:25:25.528Z,3.47
2019-01-03T09:28:16.393Z,3.60
2019-01-03T09:31:07.394Z,3.47
2019-01-03T09:34:10.464Z,3.10
2019-01-03T09:37:01.314Z,3.50
2019-01-03T09:39:47.899Z,3.05
2019-01-03T09:42:34.802Z,3.77
2019-01-03T09:45:03.938Z,4.00
2019-01-03T09:47:32.862Z,3.40
2019-01-03T09:50:01.688Z,3.30
2019-01-03T09:52:30.518Z,3.12
2019-01-03T09:54:59.678Z,3.17
2019-01-03T09:57:28.612Z,3.47
2019-01-03T09:59:57.522Z,3.00
2019-01-03T10:02:26.682Z,3.60
2019-01-03T10:04:55.658Z,3.60
2019-01-03T10:07:24.545Z,3.25
2019-01-03T10:09:53.706Z,3.20
2019-01-03T10:12:22.542Z,3.08
2019-01-03T10:14:51.470Z,3.30
2019-01-03T10:17:20.302Z,3.50
2019-01-03T10:19:49.278Z,3.00
2019-01-03T10:22:18.253Z,3.90
2019-01-03T10:24:47.110Z,3.30
2019-01-03T10:27:16.094Z,3.22
2019-01-03T10:29:44.931Z,3.58
2019-01-03T10:32:13.769Z,3.30
2019-01-03T10:34:42.682Z,3.20
2019-01-03T10:37:11.859Z,3.62
2019-01-03T10:39:40.769Z,3.20
2019-01-03T10:42:09.694Z,3.33
2019-01-03T10:44:38.586Z,3.20
2019-01-03T10:47:07.624Z,3.20
2019-01-03T10:49:36.477Z,3.40
2019-01-03T10:52:05.657Z,3.60
2019-01-03T10:54:34.585Z,3.02
2019-01-03T10:57:03.488Z,3.30
2019-01-03T10:59:32.414Z,3.58
2019-01-03T11:02:01.245Z,3.33
2019-01-03T11:04:30.662Z,3.50
2019-01-03T11:06:59.549Z,3.50
2019-01-03T11:09:28.453Z,3.42
2019-01-03T11:11:57.369Z,3.30
2019-01-03T11:14:26.213Z,3.50
2019-01-03T11:16:55.053Z,3.45
2019-01-03T11:19:23.872Z,3.20
2019-01-03T11:21:52.718Z,3.02
2019-01-03T11:24:21.617Z,3.30
2019-01-03T11:26:50.537Z,3.67
2019-01-03T11:29:19.378Z,3.70
2019-01-03T11:31:48.225Z,4.05
2019-01-03T11:34:17.052Z,4.00
2019-01-03T11:36:45.881Z,3.90
2019-01-03T11:39:15.026Z,3.73
2019-01-03T11:41:43.956Z,3.50
2019-01-03T11:44:12.781Z,3.75
2019-01-03T11:46:41.609Z,3.40
2019-01-03T11:49:10.422Z,3.35
2019-01-03T11:51:39.673Z,3.80
2019-01-03T11:54:08.773Z,3.30
2019-01-03T11:56:37.709Z,3.33
2019-01-03T11:59:06.950Z,3.55
2019-01-03T12:01:35.862Z,3.40
2019-01-03T12:04:05.068Z,3.30
2019-01-03T12:06:34.149Z,3.70
2019-01-03T12:09:04.293Z,2.90
2019-01-03T12:11:33.490Z,3.55
2019-01-03T12:14:02.389Z,2.87
2019-01-03T12:16:31.286Z,3.05
2019-01-03T12:19:00.434Z,2.90
2019-01-03T12:21:29.249Z,3.30
2019-01-03T12:23:58.096Z,3.20
2019-01-03T12:26:26.994Z,3.25
2019-01-03T12:28:55.834Z,3.00
2019-01-03T12:31:24.721Z,3.17
2019-01-03T12:33:53.725Z,2.98
2019-01-03T12:36:22.570Z,2.80
2019-01-03T12:38:51.497Z,2.70
2019-01-03T12:41:20.333Z,2.70
2019-01-03T12:43:49.253Z,2.40
2019-01-03T12:46:18.113Z,2.55
2019-01-03T12:48:46.946Z,2.90
2019-01-03T12:51:15.841Z,2.80
2019-01-03T12:53:44.688Z,5.67
2019-01-03T12:56:13.585Z,2.70
2019-01-03T12:58:42.397Z,2.87
2019-01-03T13:01:11.322Z,3.30
2019-01-03T13:03:40.566Z,2.50
2019-01-03T13:06:09.416Z,2.83
2019-01-03T13:08:38.336Z,2.98
2019-01-03T13:11:07.329Z,2.95
2019-01-03T13:13:36.490Z,3.20
2019-01-03T13:16:05.733Z,3.20
2019-01-03T13:18:34.741Z,2.62
2019-01-03T13:21:03.729Z,2.70
2019-01-03T13:23:32.562Z,2.93
2019-01-03T13:26:01.405Z,2.98
2019-01-03T13:28:30.574Z,2.80
2019-01-03T13:30:59.504Z,2.50
2019-01-03T13:33:28.571Z,3.02
2019-01-03T13:35:57.725Z,3.17
2019-01-03T13:38:26.553Z,2.92
2019-01-03T13:40:55.401Z,2.40
2019-01-03T13:43:24.477Z,2.90
2019-01-03T13:45:53.663Z,2.67
2019-01-03T13:48:22.861Z,2.55
2019-01-03T13:50:51.978Z,2.37
2019-01-03T13:53:20.855Z,3.17
2019-01-03T13:55:49.703Z,3.30
2019-01-03T13:58:18.538Z,2.80
2019-01-03T14:00:47.365Z,2.80
2019-01-03T14:03:16.218Z,3.00
2019-01-03T14:05:45.267Z,3.10
2019-01-03T14:08:14.129Z,3.22
2019-01-03T14:10:42.974Z,4.10
2019-01-03T14:13:11.889Z,6.55
2019-01-03T14:15:41.030Z,4.20
2019-01-03T14:18:09.951Z,3.02
2019-01-03T14:20:57.991Z,3.00
2019-01-03T14:23:27.681Z,3.00
2019-01-03T14:25:56.578Z,4.40
2019-01-03T14:28:25.489Z,5.43
2019-01-03T14:30:54.729Z,3.25
2019-01-03T14:33:23.642Z,4.55
2019-01-03T14:35:52.546Z,5.10
2019-01-03T14:38:21.633Z,4.90
2019-01-03T14:40:50.457Z,4.75
2019-01-03T14:43:19.631Z,3.93
2019-01-03T14:45:48.677Z,4.40
2019-01-03T14:48:17.557Z,5.33
2019-01-03T14:50:46.546Z,4.75
2019-01-03T14:53:15.715Z,6.30
2019-01-03T14:55:44.722Z,6.87
2019-01-03T14:58:13.922Z,11.00
2019-01-03T15:00:43.066Z,8.45
2019-01-03T15:03:11.893Z,6.65
2019-01-03T15:05:40.737Z,8.10
2019-01-03T15:08:09.570Z,3.90
2019-01-03T15:10:38.497Z,6.60
2019-01-03T15:13:07.464Z,5.60
2019-01-03T15:15:37.040Z,9.45
2019-01-03T15:18:05.950Z,11.30
2019-01-03T15:20:34.857Z,6.60
2019-01-03T15:23:03.765Z,8.00
2019-01-03T15:25:32.989Z,9.60
2019-01-03T15:28:01.821Z,9.50
2019-01-03T15:30:30.738Z,7.87
2019-01-03T15:33:00.267Z,4.70
2019-01-03T15:35:29.584Z,5.50
2019-01-03T15:37:58.702Z,3.40
2019-01-03T15:40:28.274Z,3.27
2019-01-03T15:42:57.175Z,3.35
2019-01-03T15:45:26.267Z,3.40
2019-01-03T15:47:55.078Z,3.42
2019-01-03T15:50:24.346Z,3.00
2019-01-03T15:52:53.246Z,2.97
2019-01-03T15:55:22.085Z,2.72
2019-01-03T15:57:50.986Z,2.70
2019-01-03T16:00:19.835Z,2.55
2019-01-03T16:02:48.661Z,2.30
2019-01-03T16:05:17.492Z,2.80
2019-01-03T16:07:47.090Z,2.70
2019-01-03T16:10:16.698Z,2.60
2019-01-03T16:12:45.830Z,2.62
2019-01-03T16:15:14.798Z,2.80
2019-01-03T16:17:43.706Z,2.83
2019-01-03T16:20:12.533Z,2.72
2019-01-03T16:22:41.454Z,2.80
2019-01-03T16:25:10.421Z,2.70
2019-01-03T16:27:39.557Z,2.75
2019-01-03T16:30:10.121Z,3.10
2019-01-03T16:32:39.170Z,3.77
2019-01-03T16:35:27.201Z,2.87
2019-01-03T16:37:56.432Z,2.92
2019-01-03T16:40:25.253Z,3.27
2019-01-03T16:42:54.161Z,2.90
2019-01-03T16:45:23.365Z,3.40
2019-01-03T16:47:52.744Z,3.70
2019-01-03T16:50:21.640Z,3.70
2019-01-03T16:52:51.067Z,3.35
2019-01-03T16:55:20.165Z,3.07
2019-01-03T16:57:49.141Z,2.53
2019-01-03T17:00:18.478Z,2.70
2019-01-03T17:02:47.370Z,2.90
2019-01-03T17:05:16.282Z,2.80
2019-01-03T17:07:45.180Z,2.27
2019-01-03T17:10:16.329Z,2.80
2019-01-03T17:12:45.241Z,3.00
2019-01-03T17:15:14.420Z,3.50
2019-01-03T17:17:43.313Z,2.80
2019-01-03T17:20:12.248Z,2.60
2019-01-03T17:22:41.155Z,3.08
2019-01-03T17:25:14.643Z,3.60
2019-01-03T17:27:43.938Z,3.30
2019-01-03T17:30:13.006Z,4.80
2019-01-03T17:32:41.977Z,5.40
2019-01-03T17:35:12.092Z,4.60
2019-01-03T17:37:41.360Z,4.60
2019-01-03T17:40:12.553Z,4.50
2019-01-03T17:42:42.568Z,4.00
2019-01-03T17:45:11.605Z,3.85
2019-01-03T17:47:40.494Z,3.52
2019-01-03T17:50:10.445Z,3.42
2019-01-03T17:52:39.685Z,3.45
2019-01-03T17:55:08.845Z,3.27
2019-01-03T17:57:37.809Z,3.60
2019-01-03T18:00:11.086Z,3.20
2019-01-03T18:02:40.069Z,3.50
2019-01-03T18:05:09.043Z,3.20
2019-01-03T18:07:38.257Z,3.80
2019-01-03T18:10:09.554Z,5.87
2019-01-03T18:12:38.533Z,3.40
2019-01-03T18:15:07.841Z,3.30
2019-01-03T18:17:36.746Z,3.40
2019-01-03T18:20:07.149Z,3.00
2019-01-03T18:22:36.054Z,3.00
2019-01-03T18:25:05.122Z,3.60
2019-01-03T18:27:34.300Z,3.95
2019-01-03T18:30:03.369Z,3.90
2019-01-03T18:32:32.361Z,4.37
2019-01-03T18:35:01.188Z,6.12
2019-01-03T18:37:30.049Z,4.90
2019-01-03T18:39:58.878Z,4.47
2019-01-03T18:42:28.136Z,4.45
2019-01-03T18:44:57.632Z,4.17
2019-01-03T18:47:26.482Z,3.65
2019-01-03T18:49:55.657Z,3.50
2019-01-03T18:52:24.482Z,3.33
2019-01-03T18:54:53.605Z,3.27
2019-01-03T18:57:22.438Z,3.20
2019-01-03T18:59:51.386Z,3.87
2019-01-03T19:02:20.276Z,3.70
2019-01-03T19:04:49.101Z,7.12
2019-01-03T19:07:18.364Z,6.10
2019-01-03T19:09:47.187Z,8.48
2019-01-03T19:12:16.029Z,8.10
2019-01-03T19:14:44.929Z,8.57
2019-01-03T19:17:13.765Z,24.05
2019-01-03T19:19:42.915Z,6.20
2019-01-03T19:22:12.014Z,48.40
2019-01-03T19:24:41.518Z,4.47
2019-01-03T19:27:10.437Z,5.15
2019-01-03T19:29:39.343Z,4.22
2019-01-03T19:32:08.526Z,18.87
2019-01-03T19:34:37.444Z,27.22
2019-01-03T19:37:06.270Z,5.95
2019-01-03T19:39:35.373Z,4.92
2019-01-03T19:42:04.605Z,4.37
2019-01-03T19:44:33.513Z,5.85
2019-01-03T19:47:02.513Z,7.95
2019-01-03T19:49:31.723Z,7.00
2019-01-03T19:52:00.565Z,5.60
2019-01-03T19:54:29.457Z,6.72
2019-01-03T19:56:58.374Z,6.83
2019-01-03T19:59:27.205Z,8.18
2019-01-03T20:01:56.034Z,8.33
2019-01-03T20:04:24.926Z,5.80
2019-01-03T20:06:53.813Z,6.30
2019-01-03T20:09:22.642Z,5.75
2019-01-03T20:11:51.961Z,9.08
2019-01-03T20:14:21.154Z,6.50
2019-01-03T20:16:50.430Z,6.72
2019-01-03T20:19:19.658Z,5.80
2019-01-03T20:21:48.797Z,6.20
2019-01-03T20:24:17.641Z,6.70
2019-01-03T20:26:46.544Z,5.87
2019-01-03T20:29:15.508Z,6.50
2019-01-03T20:31:44.345Z,8.40
2019-01-03T20:34:13.504Z,7.97
2019-01-03T20:36:42.422Z,10.90
2019-01-03T20:39:11.250Z,9.73
2019-01-03T20:41:40.197Z,10.08
2019-01-03T20:44:09.097Z,10.60
2019-01-03T20:46:38.260Z,9.10
2019-01-03T20:49:07.525Z,8.33
2019-01-03T20:51:36.716Z,15.50
2019-01-03T20:54:05.622Z,18.65
2019-01-03T20:56:34.503Z,13.18
2019-01-03T20:59:03.380Z,16.40
2019-01-03T21:01:32.272Z,24.67
2019-01-03T21:04:01.343Z,10.90
2019-01-03T21:06:30.989Z,22.30
2019-01-03T21:09:00.261Z,18.45
2019-01-03T21:11:29.822Z,10.40
2019-01-03T21:13:58.814Z,10.88
2019-01-03T21:16:28.098Z,13.33
2019-01-03T21:18:56.971Z,8.83
2019-01-03T21:21:26.956Z,8.30
2019-01-03T21:23:56.290Z,8.78
2019-01-03T21:26:25.522Z,20.55
2019-01-03T21:28:54.386Z,10.00
2019-01-03T21:31:23.369Z,8.85
2019-01-03T21:33:52.608Z,9.73
2019-01-03T21:36:21.437Z,10.60
2019-01-03T21:38:50.711Z,13.10
2019-01-03T21:41:19.892Z,12.50
2019-01-03T21:43:48.993Z,13.65
2019-01-03T21:46:17.918Z,18.35
2019-01-03T21:48:52.982Z,13.62
2019-01-03T21:51:17.542Z,13.40
2019-01-03T21:53:46.431Z,13.43
2019-01-03T21:56:15.333Z,11.48
2019-01-03T21:58:44.244Z,16.75
2019-01-03T22:01:13.149Z,12.90
2019-01-03T22:03:41.992Z,11.40
2019-01-03T22:06:10.817Z,10.32
2019-01-03T22:08:39.654Z,10.88
2019-01-03T22:11:08.553Z,12.28
2019-01-03T22:13:37.521Z,10.58
2019-01-03T22:16:06.340Z,12.30
2019-01-03T22:18:35.266Z,12.82
2019-01-03T22:21:04.236Z,11.38
2019-01-03T22:23:33.141Z,10.55
2019-01-03T22:26:02.365Z,11.85
2019-01-03T22:28:31.886Z,10.70
2019-01-03T22:31:01.073Z,11.70
2019-01-03T22:33:29.973Z,10.80
2019-01-03T22:35:58.830Z,10.98
2019-01-03T22:38:27.655Z,11.85
2019-01-03T22:40:56.868Z,10.90
2019-01-03T22:43:26.017Z,11.57
2019-01-03T22:45:54.956Z,11.73
2019-01-03T22:48:24.188Z,10.60
2019-01-03T22:50:53.388Z,10.75
2019-01-03T22:53:22.286Z,11.00
2019-01-03T22:55:51.273Z,10.07
2019-01-03T22:58:20.715Z,11.05
2019-01-03T23:00:52.806Z,9.98
2019-01-03T23:03:21.697Z,9.73
2019-01-03T23:05:50.916Z,9.78
2019-01-03T23:08:19.758Z,9.93
2019-01-03T23:10:48.681Z,11.00
2019-01-03T23:13:17.594Z,10.30
2019-01-03T23:15:46.576Z,10.10
2019-01-03T23:18:15.424Z,10.90
2019-01-03T23:20:44.425Z,10.10
2019-01-03T23:23:13.246Z,9.90
2019-01-03T23:25:42.088Z,10.75
2019-01-03T23:28:11.290Z,11.22
2019-01-03T23:30:40.205Z,11.00
2019-01-03T23:33:09.045Z,10.13
2019-01-03T23:35:38.022Z,9.55
2019-01-03T23:38:06.997Z,9.40
2019-01-03T23:40:35.862Z,9.05
2019-01-03T23:43:04.861Z,10.40
2019-01-03T23:45:34.375Z,9.85
2019-01-03T23:48:03.396Z,9.45
2019-01-03T23:50:34.003Z,10.13
2019-01-03T23:53:02.972Z,9.68
2019-01-03T23:55:36.282Z,10.05
2019-01-03T23:58:05.269Z,9.73
